Time;durP1;ratioP1;P1;durP2;ratioP2;P2;SDS_P1;SDS_P2;PMS_P1;PMS_P2;Temp;Humidity;BMP_temperature;BMP_pressure;BME280_temperature;BME280_humidity;BME280_pressure;Samples;Min_cycle;Max_cycle;Signal;HPM_P1;HPM_P2
2022/03/17 00:00:34;;;;;;;22.87;14.40;;;5.20;99.90;;;;;;5087840;28;20224;-68
2022/03/17 00:03:00;;;;;;;21.57;13.57;;;5.20;99.90;;;;;;5077186;28;20201;-65
2022/03/17 00:05:25;;;;;;;31.40;13.30;;;5.20;99.90;;;;;;5089566;28;20189;-61
2022/03/17 00:07:51;;;;;;;25.67;13.47;;;5.20;99.90;;;;;;5092242;28;20188;-61
2022/03/17 00:10:17;;;;;;;25.80;13.87;;;5.20;99.90;;;;;;5089847;28;20176;-61
2022/03/17 00:12:44;;;;;;;17.10;11.80;;;5.10;99.90;;;;;;5092774;28;20201;-66
2022/03/17 00:15:10;;;;;;;25.87;12.50;;;5.00;99.90;;;;;;5085788;28;20473;-66
2022/03/17 00:17:37;;;;;;;23.50;12.50;;;5.00;99.90;;;;;;5074449;28;20427;-65
2022/03/17 00:20:03;;;;;;;20.37;12.53;;;5.00;99.90;;;;;;5086648;28;20449;-61
2022/03/17 00:22:29;;;;;;;20.00;14.23;;;5.00;99.90;;;;;;5076295;28;20539;-61
2022/03/17 00:24:55;;;;;;;20.50;12.03;;;5.00;99.90;;;;;;5091715;28;20526;-61
2022/03/17 00:27:21;;;;;;;21.93;13.00;;;5.00;99.90;;;;;;5081009;28;20469;-61
2022/03/17 00:29:47;;;;;;;19.50;10.40;;;5.00;99.90;;;;;;5081105;28;20177;-65
2022/03/17 00:32:12;;;;;;;22.60;12.77;;;5.10;99.90;;;;;;5085796;28;20439;-67
2022/03/17 00:35:35;;;;;;;23.60;13.53;;;5.10;99.90;;;;;;5073040;28;20313;-62
2022/03/17 00:37:24;;;;;;;19.23;12.10;;;5.20;99.90;;;;;;5085259;28;20562;-68
2022/03/17 00:39:51;;;;;;;26.33;13.37;;;5.20;99.90;;;;;;5088739;28;20487;-61
2022/03/17 00:42:17;;;;;;;26.27;13.00;;;5.20;99.90;;;;;;5092129;28;20905;-64
2022/03/17 00:44:43;;;;;;;18.77;11.20;;;5.20;99.90;;;;;;5091295;28;20518;-61
2022/03/17 00:47:08;;;;;;;23.07;11.63;;;5.20;99.90;;;;;;5092937;28;20888;-66
2022/03/17 00:49:34;;;;;;;24.43;12.27;;;5.20;99.90;;;;;;5090008;28;20181;-66
2022/03/17 00:51:59;;;;;;;22.43;13.20;;;5.20;99.90;;;;;;5090584;28;20616;-66
2022/03/17 00:54:26;;;;;;;21.50;12.17;;;5.30;99.90;;;;;;5092216;28;20208;-68
2022/03/17 00:56:53;;;;;;;28.30;15.47;;;5.30;99.90;;;;;;5086372;28;20224;-63
2022/03/17 00:59:19;;;;;;;24.13;13.37;;;5.30;99.90;;;;;;5090515;28;20945;-65
2022/03/17 01:01:44;;;;;;;21.73;13.57;;;5.30;99.90;;;;;;5085715;28;20193;-60
2022/03/17 01:04:10;;;;;;;32.40;14.13;;;5.30;99.90;;;;;;5083274;28;20203;-60
2022/03/17 01:06:35;;;;;;;24.60;12.63;;;5.40;99.90;;;;;;5073093;28;20236;-61
2022/03/17 01:09:01;;;;;;;22.30;12.17;;;5.30;99.90;;;;;;5085340;28;20177;-62
2022/03/17 01:11:27;;;;;;;19.97;12.00;;;5.30;99.90;;;;;;5079991;28;20255;-61
2022/03/17 01:13:53;;;;;;;24.83;13.13;;;5.30;99.90;;;;;;5080751;28;20812;-66
2022/03/17 01:16:18;;;;;;;25.20;13.97;;;5.30;99.90;;;;;;5082012;28;20192;-66
2022/03/17 01:18:44;;;;;;;29.53;13.83;;;5.30;99.90;;;;;;5079502;28;20169;-60
2022/03/17 01:21:09;;;;;;;21.53;12.97;;;5.40;99.90;;;;;;5084843;28;20201;-64
2022/03/17 01:23:35;;;;;;;21.23;13.57;;;5.40;99.90;;;;;;5079860;28;20538;-61
2022/03/17 01:26:01;;;;;;;23.07;13.67;;;5.30;99.90;;;;;;5090681;28;20209;-62
2022/03/17 01:28:26;;;;;;;26.37;14.07;;;5.30;99.90;;;;;;5091709;28;20187;-61
2022/03/17 01:30:53;;;;;;;28.57;14.03;;;5.40;99.90;;;;;;5093642;28;20185;-63
2022/03/17 01:33:19;;;;;;;25.23;14.47;;;5.30;99.90;;;;;;5095960;28;20251;-66
2022/03/17 01:35:44;;;;;;;30.33;13.77;;;5.30;99.90;;;;;;5095127;28;20448;-61
2022/03/17 01:38:10;;;;;;;24.60;13.60;;;5.30;99.90;;;;;;5094831;28;20205;-60
2022/03/17 01:40:36;;;;;;;20.87;13.33;;;5.40;99.90;;;;;;5090014;28;20187;-64
2022/03/17 01:43:02;;;;;;;20.20;13.23;;;5.40;99.90;;;;;;5090807;28;20213;-63
2022/03/17 01:45:28;;;;;;;25.37;15.47;;;5.40;99.90;;;;;;5094806;28;20229;-66
2022/03/17 01:47:55;;;;;;;21.67;12.00;;;5.40;99.90;;;;;;5093086;28;20796;-61
2022/03/17 01:50:20;;;;;;;28.50;12.40;;;5.40;99.90;;;;;;5093312;28;20834;-65
2022/03/17 01:52:46;;;;;;;26.40;14.10;;;5.40;99.90;;;;;;5076637;28;20466;-66
2022/03/17 01:55:13;;;;;;;22.70;14.53;;;5.40;99.90;;;;;;5093521;28;20427;-60
2022/03/17 01:57:39;;;;;;;25.67;12.90;;;5.40;99.90;;;;;;5078464;28;20507;-63
2022/03/17 02:00:08;;;;;;;32.90;15.27;;;5.40;99.90;;;;;;5092882;28;21013;-68
2022/03/17 02:02:34;;;;;;;28.07;13.80;;;5.30;99.90;;;;;;5091252;28;20454;-60
2022/03/17 02:05:03;;;;;;;31.90;14.47;;;5.30;99.90;;;;;;5089033;28;20812;-66
2022/03/17 02:07:29;;;;;;;32.37;15.23;;;5.30;99.90;;;;;;5089931;28;20256;-68
2022/03/17 02:09:54;;;;;;;28.87;14.43;;;5.30;99.90;;;;;;5092305;28;20458;-65
2022/03/17 02:15:08;;;;;;;28.93;15.70;;;5.30;99.90;;;;;;5095617;28;20197;-68
2022/03/17 02:17:43;;;;;;;33.07;15.13;;;5.20;99.90;;;;;;5093918;28;20879;-63
2022/03/17 02:20:13;;;;;;;30.60;15.00;;;5.20;99.90;;;;;;5093906;28;20415;-66
2022/03/17 02:22:43;;;;;;;29.40;16.30;;;5.20;99.90;;;;;;5094895;28;20444;-61
2022/03/17 02:27:52;;;;;;;30.63;16.37;;;5.20;99.90;;;;;;5094098;28;20803;-66
2022/03/17 02:30:21;;;;;;;29.63;15.93;;;5.20;99.90;;;;;;5091360;28;20425;-63
2022/03/17 02:32:47;;;;;;;35.87;16.73;;;5.20;99.90;;;;;;5080110;28;20203;-64
2022/03/17 02:35:17;;;;;;;27.57;17.23;;;5.20;99.90;;;;;;5093685;28;20424;-67
2022/03/17 02:37:42;;;;;;;34.20;16.70;;;5.20;99.90;;;;;;5074304;28;20420;-63
2022/03/17 02:40:10;;;;;;;27.40;16.50;;;5.10;99.90;;;;;;5075213;28;20414;-65
2022/03/17 02:42:37;;;;;;;27.70;16.07;;;5.20;99.90;;;;;;5094581;28;20204;-68
2022/03/17 02:45:05;;;;;;;32.07;16.70;;;5.10;99.90;;;;;;5093061;28;20428;-68
2022/03/17 02:47:31;;;;;;;40.97;17.20;;;5.20;99.90;;;;;;5095069;28;21030;-61
2022/03/17 02:49:56;;;;;;;30.03;15.77;;;5.20;99.90;;;;;;5093483;28;20424;-65
2022/03/17 02:52:23;;;;;;;29.90;17.17;;;5.20;99.90;;;;;;5088499;28;20665;-65
2022/03/17 02:54:49;;;;;;;33.47;16.93;;;5.20;99.90;;;;;;5094235;28;20456;-67
2022/03/17 02:57:15;;;;;;;26.97;14.00;;;5.20;99.90;;;;;;5094290;28;20725;-66
2022/03/17 02:59:41;;;;;;;36.97;18.37;;;5.30;99.90;;;;;;5093334;28;20421;-61
2022/03/17 03:02:07;;;;;;;31.87;17.63;;;5.20;99.90;;;;;;5088623;28;20202;-67
2022/03/17 03:04:36;;;;;;;29.60;16.17;;;5.20;99.90;;;;;;5093867;28;20424;-63
2022/03/17 03:07:02;;;;;;;39.23;17.67;;;5.30;99.90;;;;;;5089869;28;20455;-63
2022/03/17 03:09:29;;;;;;;31.53;19.20;;;5.30;99.90;;;;;;5093695;28;20960;-65
2022/03/17 03:11:55;;;;;;;30.40;16.87;;;5.30;99.90;;;;;;5077253;28;20457;-67
2022/03/17 03:14:21;;;;;;;30.47;16.07;;;5.30;99.90;;;;;;5091531;28;20459;-64
2022/03/17 03:16:47;;;;;;;35.30;17.00;;;5.40;99.90;;;;;;5093956;28;20429;-64
2022/03/17 03:19:13;;;;;;;37.87;19.20;;;5.40;99.90;;;;;;5090065;28;20421;-67
2022/03/17 03:21:39;;;;;;;43.43;20.90;;;5.40;99.90;;;;;;5093785;28;20530;-60
2022/03/17 03:24:05;;;;;;;38.47;18.10;;;5.40;99.90;;;;;;5092599;28;20183;-61
2022/03/17 03:26:30;;;;;;;33.50;16.57;;;5.40;99.90;;;;;;5094992;28;20174;-63
2022/03/17 03:28:56;;;;;;;33.77;15.90;;;5.50;99.90;;;;;;5091799;28;20182;-66
2022/03/17 03:31:22;;;;;;;48.93;19.70;;;5.40;99.90;;;;;;5077391;28;20571;-65
2022/03/17 03:33:48;;;;;;;31.83;17.30;;;5.50;99.90;;;;;;5092937;28;20479;-61
2022/03/17 03:38:58;;;;;;;26.63;16.63;;;5.50;99.90;;;;;;5091756;28;20493;-65
2022/03/17 03:41:24;;;;;;;30.40;18.40;;;5.50;99.90;;;;;;5078456;28;20944;-65
2022/03/17 03:43:49;;;;;;;39.30;18.53;;;5.50;99.90;;;;;;5085966;28;20220;-61
2022/03/17 03:46:15;;;;;;;33.87;18.80;;;5.50;99.90;;;;;;5093441;28;20288;-69
2022/03/17 03:48:41;;;;;;;44.10;20.70;;;5.60;99.90;;;;;;5074424;28;20203;-63
2022/03/17 03:51:07;;;;;;;37.97;18.30;;;5.60;99.90;;;;;;5086694;28;20203;-65
2022/03/17 03:56:17;;;;;;;35.07;18.23;;;5.60;99.90;;;;;;5094763;28;20533;-61
2022/03/17 03:58:43;;;;;;;34.00;17.97;;;5.60;99.90;;;;;;5091385;28;20528;-66
2022/03/17 04:01:08;;;;;;;35.97;18.07;;;5.70;99.90;;;;;;5090619;28;20209;-66
2022/03/17 04:03:34;;;;;;;35.53;18.67;;;5.70;99.90;;;;;;5089335;28;20181;-65
2022/03/17 04:06:00;;;;;;;34.07;17.57;;;5.70;99.90;;;;;;5091053;28;20206;-60
2022/03/17 04:08:25;;;;;;;36.87;20.07;;;5.70;99.90;;;;;;5091414;28;20191;-66
2022/03/17 04:10:51;;;;;;;34.13;18.27;;;5.80;99.90;;;;;;5082188;28;20294;-61
2022/03/17 04:13:17;;;;;;;30.93;17.37;;;5.80;99.90;;;;;;5093496;28;20211;-62
2022/03/17 04:15:42;;;;;;;46.17;20.73;;;5.80;99.90;;;;;;5085879;28;20183;-61
2022/03/17 04:18:08;;;;;;;37.13;21.20;;;5.80;99.90;;;;;;5081365;28;20178;-61
2022/03/17 04:20:34;;;;;;;30.77;18.60;;;5.80;99.90;;;;;;5091652;28;20177;-61
2022/03/17 04:22:59;;;;;;;37.40;18.20;;;5.80;99.90;;;;;;5074952;28;20197;-60
2022/03/17 04:25:25;;;;;;;46.30;19.03;;;5.90;99.90;;;;;;5091079;28;20427;-61
2022/03/17 04:27:51;;;;;;;35.23;17.43;;;5.90;99.90;;;;;;5092606;28;20195;-62
2022/03/17 04:30:17;;;;;;;35.73;19.40;;;5.90;99.90;;;;;;5083976;28;20174;-61
2022/03/17 04:32:43;;;;;;;39.27;19.73;;;5.90;99.90;;;;;;5092836;28;20463;-60
2022/03/17 04:35:09;;;;;;;36.80;20.03;;;5.90;99.90;;;;;;5073452;28;20223;-65
2022/03/17 04:37:35;;;;;;;40.70;21.27;;;5.90;99.90;;;;;;5075760;28;20440;-60
2022/03/17 04:40:01;;;;;;;36.27;19.20;;;5.90;99.90;;;;;;5091683;28;20193;-62
2022/03/17 04:42:27;;;;;;;38.83;19.57;;;6.00;99.90;;;;;;5092202;28;20483;-65
2022/03/17 04:44:52;;;;;;;39.00;21.40;;;6.00;99.90;;;;;;5074689;28;20863;-61
2022/03/17 04:47:18;;;;;;;39.40;21.00;;;6.00;99.90;;;;;;5072996;28;20179;-61
2022/03/17 04:49:43;;;;;;;37.87;20.33;;;6.00;99.90;;;;;;5086005;28;20181;-61
2022/03/17 04:54:53;;;;;;;38.70;20.60;;;6.00;99.90;;;;;;5073437;28;20649;-69
2022/03/17 04:57:20;;;;;;;39.37;20.03;;;6.10;99.90;;;;;;5076239;28;20419;-65
2022/03/17 04:59:45;;;;;;;46.40;21.80;;;6.10;99.90;;;;;;5083495;28;20177;-68
2022/03/17 05:02:13;;;;;;;36.33;18.60;;;6.10;99.90;;;;;;5081344;28;20451;-70
2022/03/17 05:04:39;;;;;;;34.17;17.77;;;6.10;99.90;;;;;;5078386;28;20174;-63
2022/03/17 05:07:05;;;;;;;38.20;21.17;;;6.10;99.90;;;;;;5112534;28;20482;-63
2022/03/17 05:09:30;;;;;;;38.17;20.20;;;6.10;99.90;;;;;;5060955;28;20505;-62
2022/03/17 05:11:56;;;;;;;34.67;20.50;;;6.20;99.90;;;;;;5076536;28;20218;-68
2022/03/17 05:14:21;;;;;;;35.60;19.23;;;6.20;99.90;;;;;;5073255;28;20599;-66
2022/03/17 05:16:47;;;;;;;40.57;21.07;;;6.20;99.90;;;;;;5073406;28;20166;-66
2022/03/17 05:19:13;;;;;;;38.57;19.83;;;6.30;99.90;;;;;;5089596;28;20176;-61
2022/03/17 05:21:38;;;;;;;37.57;19.80;;;6.30;99.90;;;;;;5097115;28;20220;-60
2022/03/17 05:24:05;;;;;;;39.07;22.30;;;6.30;99.90;;;;;;5091718;28;20231;-61
2022/03/17 05:26:31;;;;;;;39.37;19.90;;;6.30;99.90;;;;;;5078169;28;20539;-64
2022/03/17 05:28:56;;;;;;;34.87;18.67;;;6.30;99.90;;;;;;5071944;28;20438;-67
2022/03/17 05:31:23;;;;;;;48.33;22.30;;;6.30;99.90;;;;;;5084011;28;20194;-60
2022/03/17 05:33:48;;;;;;;33.50;19.60;;;6.40;99.90;;;;;;5092344;28;20562;-63
2022/03/17 05:36:14;;;;;;;34.80;20.17;;;6.40;99.90;;;;;;5083181;28;20947;-67
2022/03/17 05:38:40;;;;;;;41.07;22.80;;;6.40;99.90;;;;;;5090973;28;20169;-67
2022/03/17 05:41:05;;;;;;;33.67;17.00;;;6.50;99.90;;;;;;5083681;28;20246;-65
2022/03/17 05:43:31;;;;;;;40.53;21.80;;;6.50;99.90;;;;;;5072643;28;20446;-66
2022/03/17 05:45:57;;;;;;;38.27;21.30;;;6.50;99.90;;;;;;5079142;28;20200;-63
2022/03/17 05:48:23;;;;;;;43.27;23.10;;;6.50;99.90;;;;;;5089533;28;20466;-61
2022/03/17 05:50:49;;;;;;;30.63;18.30;;;6.50;99.90;;;;;;5092617;28;20436;-69
2022/03/17 05:53:15;;;;;;;32.20;20.20;;;6.50;99.90;;;;;;5103031;28;20257;-62
2022/03/17 05:55:40;;;;;;;41.13;22.50;;;6.60;99.90;;;;;;5072389;28;20170;-68
2022/03/17 05:58:06;;;;;;;34.73;22.27;;;6.60;99.90;;;;;;5075850;28;20526;-68
2022/03/17 06:00:35;;;;;;;34.33;20.80;;;6.60;99.90;;;;;;5072299;28;20175;-69
2022/03/17 06:03:01;;;;;;;37.47;23.30;;;6.70;99.90;;;;;;5087007;28;20493;-64
2022/03/17 06:05:28;;;;;;;37.07;21.97;;;6.70;99.90;;;;;;5090991;28;20423;-67
2022/03/17 06:07:57;;;;;;;44.20;21.67;;;6.80;99.90;;;;;;5088593;28;20493;-67
2022/03/17 06:10:27;;;;;;;34.47;20.13;;;6.80;99.90;;;;;;5088051;28;20950;-69
2022/03/17 06:12:53;;;;;;;35.60;22.43;;;6.80;99.90;;;;;;5094290;28;20458;-63
2022/03/17 06:15:21;;;;;;;40.93;21.90;;;6.80;99.90;;;;;;5083577;28;20472;-69
2022/03/17 06:17:52;;;;;;;40.60;21.73;;;6.80;99.90;;;;;;5095248;28;20822;-67
2022/03/17 06:20:20;;;;;;;33.70;20.67;;;6.90;99.20;;;;;;5089244;28;20931;-64
2022/03/17 06:22:48;;;;;;;44.40;22.57;;;6.90;96.70;;;;;;5081824;28;20444;-63
2022/03/17 06:25:15;;;;;;;45.60;23.90;;;6.90;93.70;;;;;;5081973;28;20439;-63
2022/03/17 06:27:45;;;;;;;40.83;21.23;;;7.00;88.70;;;;;;5088490;28;20415;-63
2022/03/17 06:30:13;;;;;;;36.60;20.63;;;7.00;79.00;;;;;;5093852;28;20454;-63
2022/03/17 06:32:39;;;;;;;42.00;21.80;;;7.00;78.90;;;;;;5095179;28;20520;-63
2022/03/17 06:35:10;;;;;;;41.53;23.53;;;7.00;72.40;;;;;;5093077;28;20430;-67
2022/03/17 06:37:37;;;;;;;41.50;22.70;;;7.00;67.60;;;;;;5084318;28;20431;-63
2022/03/17 06:40:04;;;;;;;46.97;24.50;;;7.10;55.60;;;;;;5083677;28;20423;-70
2022/03/17 06:42:30;;;;;;;45.00;22.90;;;7.10;47.30;;;;;;5082361;28;20443;-72
2022/03/17 06:44:56;;;;;;;46.37;22.47;;;7.20;40.50;;;;;;5075896;28;20439;-63
2022/03/17 06:47:21;;;;;;;40.60;20.87;;;7.20;30.20;;;;;;5068249;28;20173;-68
2022/03/17 06:49:47;;;;;;;43.10;21.80;;;7.30;24.50;;;;;;5094280;28;20177;-64
2022/03/17 06:52:13;;;;;;;41.77;22.23;;;7.20;16.10;;;;;;5068727;28;20201;-63
2022/03/17 06:54:38;;;;;;;39.63;22.43;;;7.30;9.90;;;;;;5092884;28;20209;-62
2022/03/17 06:57:04;;;;;;;38.93;23.00;;;7.20;2.30;;;;;;5089917;28;20215;-67
2022/03/17 06:59:30;;;;;;;41.57;24.33;;;7.30;1.00;;;;;;5095038;28;20633;-70
2022/03/17 07:01:55;;;;;;;40.27;22.80;;;7.30;1.00;;;;;;5095100;28;20189;-63
2022/03/17 07:04:21;;;;;;;39.53;22.33;;;7.30;1.00;;;;;;5095849;28;20227;-63
2022/03/17 07:06:46;;;;;;;40.63;21.10;;;7.30;1.00;;;;;;5095078;28;20535;-63
2022/03/17 07:09:13;;;;;;;35.90;20.97;;;7.40;1.00;;;;;;5094830;28;20173;-68
2022/03/17 07:11:39;;;;;;;40.30;22.63;;;7.30;1.00;;;;;;5086540;28;20813;-70
2022/03/17 07:14:05;;;;;;;43.87;24.60;;;7.30;1.00;;;;;;5095208;28;20475;-70
2022/03/17 07:16:30;;;;;;;33.00;22.07;;;7.30;1.00;;;;;;5068405;28;20451;-68
2022/03/17 07:18:56;;;;;;;37.90;23.10;;;7.40;1.00;;;;;;5056461;28;20181;-63
2022/03/17 07:21:22;;;;;;;36.83;23.37;;;7.40;1.00;;;;;;5082134;28;20741;-63
2022/03/17 07:23:47;;;;;;;40.80;22.77;;;7.40;1.00;;;;;;5094846;28;20173;-67
2022/03/17 07:26:13;;;;;;;41.13;23.23;;;7.40;1.00;;;;;;5090444;28;20181;-63
2022/03/17 07:28:39;;;;;;;42.03;22.93;;;7.40;1.00;;;;;;5073016;28;20377;-69
2022/03/17 07:31:04;;;;;;;43.63;24.20;;;7.50;1.00;;;;;;5108439;28;20162;-67
2022/03/17 07:33:32;;;;;;;37.07;23.80;;;7.50;1.00;;;;;;5058604;28;20200;-70
2022/03/17 07:35:58;;;;;;;39.97;22.30;;;7.60;1.00;;;;;;5077369;28;20493;-63
2022/03/17 07:38:23;;;;;;;45.97;23.47;;;7.60;1.00;;;;;;5094817;28;20406;-63
2022/03/17 07:40:49;;;;;;;42.40;23.80;;;7.60;1.00;;;;;;5075682;28;20422;-69
2022/03/17 07:43:14;;;;;;;48.40;27.77;;;7.70;1.00;;;;;;5077248;28;20272;-70
2022/03/17 07:45:40;;;;;;;39.57;24.63;;;7.60;1.00;;;;;;5091307;28;20275;-65
2022/03/17 07:48:06;;;;;;;44.27;23.90;;;7.70;1.00;;;;;;5074597;28;20224;-70
2022/03/17 07:50:33;;;;;;;41.60;24.30;;;7.80;1.00;;;;;;5092006;28;20412;-68
2022/03/17 07:52:59;;;;;;;40.27;24.67;;;7.80;1.00;;;;;;5094747;28;20569;-69
2022/03/17 07:55:25;;;;;;;41.13;25.83;;;7.90;1.00;;;;;;5094231;28;20453;-68
2022/03/17 07:57:51;;;;;;;46.67;27.30;;;7.90;1.00;;;;;;5074461;28;20744;-64
2022/03/17 08:00:17;;;;;;;46.60;27.47;;;7.90;1.00;;;;;;5073661;28;20404;-66
2022/03/17 08:02:42;;;;;;;35.53;22.23;;;7.90;1.00;;;;;;5073696;28;20818;-69
2022/03/17 08:05:13;;;;;;;42.73;25.00;;;8.00;1.00;;;;;;5074267;28;20175;-63
2022/03/17 08:07:39;;;;;;;49.00;28.17;;;8.00;1.00;;;;;;5056556;28;20408;-64
2022/03/17 08:10:06;;;;;;;44.50;26.60;;;8.00;1.00;;;;;;5073643;28;20869;-70
2022/03/17 08:12:34;;;;;;;43.07;26.30;;;8.10;1.00;;;;;;5074132;28;20413;-68
2022/03/17 08:15:00;;;;;;;46.97;26.17;;;8.10;1.00;;;;;;5074294;28;20393;-63
2022/03/17 08:17:26;;;;;;;44.77;25.50;;;8.10;1.00;;;;;;5074285;28;20397;-63
2022/03/17 08:19:53;;;;;;;50.53;26.73;;;8.10;1.00;;;;;;5055792;28;20492;-64
2022/03/17 08:22:19;;;;;;;45.73;25.57;;;8.10;1.00;;;;;;5073265;28;20190;-63
2022/03/17 08:24:44;;;;;;;50.87;24.40;;;8.10;1.00;;;;;;5073804;28;20738;-69
2022/03/17 08:27:10;;;;;;;41.33;24.43;;;8.10;1.00;;;;;;5074239;28;20168;-70
2022/03/17 08:29:38;;;;;;;34.53;21.83;;;8.10;1.00;;;;;;5073388;28;20232;-70
2022/03/17 08:32:05;;;;;;;46.50;26.60;;;8.10;1.00;;;;;;5073997;28;20189;-64
2022/03/17 08:34:32;;;;;;;48.03;25.80;;;8.10;1.00;;;;;;5073269;28;20960;-66
2022/03/17 08:36:59;;;;;;;41.63;22.83;;;8.10;1.00;;;;;;5073346;28;20925;-70
2022/03/17 08:39:26;;;;;;;41.30;24.30;;;8.10;1.00;;;;;;5072798;28;20392;-69
2022/03/17 08:41:52;;;;;;;45.10;25.43;;;8.10;1.00;;;;;;5073621;28;20436;-68
2022/03/17 08:44:19;;;;;;;44.10;25.73;;;8.20;1.00;;;;;;5073908;28;20451;-69
2022/03/17 08:49:30;;;;;;;44.33;24.50;;;8.30;1.00;;;;;;5073461;28;20451;-63
2022/03/17 08:51:59;;;;;;;43.60;26.80;;;8.20;1.00;;;;;;5055604;28;20444;-64
2022/03/17 08:54:27;;;;;;;47.90;28.50;;;8.30;1.00;;;;;;5073631;28;20194;-70
2022/03/17 08:57:00;;;;;;;49.77;27.27;;;8.30;1.00;;;;;;5073220;28;20456;-70
2022/03/17 08:59:36;;;;;;;39.80;23.97;;;8.30;1.00;;;;;;5072524;28;20404;-64
2022/03/17 09:02:08;;;;;;;45.27;26.00;;;8.30;1.00;;;;;;5073680;28;20773;-69
2022/03/17 09:04:34;;;;;;;38.90;23.30;;;8.30;1.00;;;;;;5073691;28;20404;-69
2022/03/17 09:07:01;;;;;;;44.97;24.37;;;8.30;1.00;;;;;;5073521;28;20769;-63
2022/03/17 09:09:28;;;;;;;46.70;27.00;;;8.30;1.00;;;;;;5072874;28;20449;-70
2022/03/17 09:11:54;;;;;;;45.77;26.70;;;8.30;1.00;;;;;;5073400;28;20730;-63
2022/03/17 09:14:21;;;;;;;54.67;27.00;;;8.40;1.00;;;;;;5072903;28;20450;-70
2022/03/17 09:16:46;;;;;;;43.30;25.67;;;8.30;1.00;;;;;;5073541;28;20942;-66
2022/03/17 09:19:12;;;;;;;43.40;25.80;;;8.40;1.00;;;;;;5088155;28;20494;-70
2022/03/17 09:21:38;;;;;;;47.67;25.00;;;8.40;1.00;;;;;;5093546;28;20185;-62
2022/03/17 09:24:04;;;;;;;47.90;26.60;;;8.40;1.00;;;;;;5077692;28;20183;-64
2022/03/17 09:26:33;;;;;;;48.50;26.30;;;8.40;1.00;;;;;;5073361;28;20431;-63
2022/03/17 09:28:59;;;;;;;40.87;25.00;;;8.50;1.00;;;;;;5062551;28;20436;-67
2022/03/17 09:31:25;;;;;;;47.97;26.07;;;8.50;1.00;;;;;;5089005;28;20492;-63
2022/03/17 09:33:51;;;;;;;45.27;25.80;;;8.50;1.00;;;;;;5091277;28;20455;-70
2022/03/17 09:36:17;;;;;;;42.47;26.13;;;8.60;1.00;;;;;;5093088;28;20400;-68
2022/03/17 09:38:44;;;;;;;54.07;28.00;;;8.70;1.00;;;;;;5081503;28;20174;-70
2022/03/17 09:41:32;;;;;;;41.13;24.03;;;8.70;1.00;;;;;;5073086;28;20259;-70
2022/03/17 09:43:57;;;;;;;51.37;24.60;;;8.70;1.00;;;;;;5084750;28;20419;-70
2022/03/17 09:46:26;;;;;;;38.80;24.63;;;8.60;1.00;;;;;;5093470;28;20769;-63
2022/03/17 09:48:53;;;;;;;45.43;27.73;;;8.60;1.00;;;;;;5096563;28;20179;-64
2022/03/17 09:51:22;;;;;;;49.83;27.07;;;8.60;1.00;;;;;;5089087;28;20516;-68
2022/03/17 09:53:52;;;;;;;46.83;25.70;;;8.50;1.00;;;;;;5076806;28;20456;-63
2022/03/17 09:56:19;;;;;;;45.20;26.87;;;8.50;1.00;;;;;;5097397;28;20445;-69
2022/03/17 09:58:47;;;;;;;44.33;24.83;;;8.40;1.00;;;;;;5096476;28;20454;-69
2022/03/17 10:01:15;;;;;;;47.83;27.70;;;8.30;1.00;;;;;;5096053;28;20449;-65
2022/03/17 10:03:41;;;;;;;43.57;26.40;;;8.20;1.00;;;;;;5097138;28;20400;-65
2022/03/17 10:06:07;;;;;;;45.07;25.67;;;8.20;1.00;;;;;;5074634;28;20418;-64
2022/03/17 10:08:33;;;;;;;47.67;26.30;;;8.10;1.00;;;;;;5058052;28;20206;-65
2022/03/17 10:10:59;;;;;;;44.20;23.70;;;8.10;20.70;;;;;;5059390;28;20420;-71
2022/03/17 10:13:26;;;;;;;51.83;26.83;;;8.10;34.80;;;;;;5096571;28;20455;-69
2022/03/17 10:16:15;;;;;;;49.00;26.70;;;8.10;53.30;;;;;;5096242;28;20633;-70
2022/03/17 10:18:40;;;;;;;50.77;27.43;;;8.10;72.40;;;;;;5074757;28;20406;-68
2022/03/17 10:21:16;;;;;;;51.63;25.53;;;8.10;79.70;;;;;;5057493;28;20506;-69
2022/03/17 10:23:56;;;;;;;53.73;27.87;;;8.10;91.40;;;;;;5075731;28;20523;-66
2022/03/17 10:26:40;;;;;;;45.37;25.43;;;8.00;95.90;;;;;;5088594;28;20519;-72
2022/03/17 10:29:22;;;;;;;47.90;25.37;;;8.00;99.90;;;;;;5093781;28;20404;-65
2022/03/17 10:31:56;;;;;;;41.30;25.10;;;7.90;99.90;;;;;;5094630;28;20436;-65
2022/03/17 10:34:25;;;;;;;54.13;27.30;;;7.80;99.90;;;;;;5095916;28;20452;-72
2022/03/17 10:36:51;;;;;;;50.47;27.93;;;7.80;99.90;;;;;;5089888;28;20415;-70
2022/03/17 10:39:17;;;;;;;49.80;26.17;;;7.90;99.90;;;;;;5074955;28;20758;-71
2022/03/17 10:41:47;;;;;;;50.90;28.17;;;7.80;99.90;;;;;;5084555;28;20299;-70
2022/03/17 10:44:16;;;;;;;44.90;23.20;;;7.80;99.90;;;;;;5095474;28;21180;-69
2022/03/17 10:46:56;;;;;;;52.07;27.80;;;7.70;99.90;;;;;;5085512;28;20432;-69
2022/03/17 10:49:22;;;;;;;41.23;24.70;;;7.60;99.90;;;;;;5074591;28;20401;-73
2022/03/17 10:51:54;;;;;;;45.40;26.30;;;7.60;99.90;;;;;;5075085;28;20513;-70
2022/03/17 10:54:20;;;;;;;44.20;26.43;;;7.60;99.90;;;;;;5075682;28;20198;-74
2022/03/17 10:57:03;;;;;;;44.57;24.13;;;7.60;99.90;;;;;;5089883;28;20892;-67
2022/03/17 10:59:44;;;;;;;45.27;24.80;;;7.50;99.90;;;;;;5094044;28;20884;-73
2022/03/17 11:02:18;;;;;;;46.07;24.93;;;7.50;99.90;;;;;;5078032;28;20770;-73
2022/03/17 11:04:44;;;;;;;43.57;24.83;;;7.50;99.90;;;;;;5093724;28;20426;-74
2022/03/17 11:07:15;;;;;;;49.00;27.43;;;7.50;99.90;;;;;;5094233;28;20426;-74
2022/03/17 11:09:45;;;;;;;50.33;28.17;;;7.50;99.90;;;;;;5091103;28;20422;-73
2022/03/17 11:12:15;;;;;;;52.30;26.03;;;7.50;99.90;;;;;;5078496;28;20444;-73
2022/03/17 11:14:53;;;;;;;40.50;27.13;;;7.50;99.90;;;;;;5092930;28;20547;-73
2022/03/17 11:17:26;;;;;;;47.67;26.90;;;7.50;99.90;;;;;;5093379;28;20423;-64
2022/03/17 11:19:54;;;;;;;40.50;23.97;;;7.50;99.90;;;;;;5094194;28;20439;-73
2022/03/17 11:22:29;;;;;;;47.43;24.13;;;7.50;99.90;;;;;;5092699;28;20873;-64
2022/03/17 11:25:17;;;;;;;42.63;24.83;;;7.50;99.90;;;;;;5094796;28;20415;-73
2022/03/17 11:27:50;;;;;;;36.60;21.47;;;7.50;99.90;;;;;;5093097;28;20420;-64
2022/03/17 11:30:17;;;;;;;39.03;23.93;;;7.50;99.90;;;;;;5093687;28;20420;-71
2022/03/17 11:32:58;;;;;;;35.87;21.13;;;7.50;99.90;;;;;;5094180;28;20424;-65
2022/03/17 11:35:29;;;;;;;33.13;18.90;;;7.50;99.90;;;;;;5089308;28;20449;-75
2022/03/17 11:38:32;;;;;;;27.67;17.07;;;7.50;99.90;;;;;;5092357;28;20473;-70
2022/03/17 11:41:16;;;;;;;31.73;17.10;;;7.50;1.00;;;;;;5007877;28;20439;-67
2022/03/17 11:43:58;;;;;;;31.33;17.37;;;7.40;1.00;;;;;;5079988;28;20433;-74
2022/03/17 11:46:34;;;;;;;30.53;19.23;;;7.50;1.00;;;;;;5094010;28;20469;-75
2022/03/17 11:49:17;;;;;;;27.13;14.03;;;7.50;1.00;;;;;;5089790;28;20434;-76
2022/03/17 11:51:54;;;;;;;27.70;14.90;;;7.60;1.00;;;;;;5092642;28;20452;-65
2022/03/17 11:54:20;;;;;;;25.33;12.43;;;7.60;1.00;;;;;;5094707;28;21026;-65
2022/03/17 11:56:47;;;;;;;19.37;10.87;;;7.60;1.00;;;;;;5093796;28;20503;-66
2022/03/17 11:59:19;;;;;;;21.67;10.73;;;7.60;1.00;;;;;;5092315;28;20165;-75
2022/03/17 12:01:46;;;;;;;20.40;9.93;;;7.70;1.00;;;;;;5096469;28;20439;-75
2022/03/17 12:04:30;;;;;;;14.17;8.50;;;7.70;1.00;;;;;;5094485;28;20432;-65
2022/03/17 12:07:20;;;;;;;20.13;9.90;;;7.60;1.00;;;;;;5093919;28;20451;-77
2022/03/17 12:09:47;;;;;;;14.40;6.70;;;7.60;1.00;;;;;;5092038;28;20423;-69
2022/03/17 12:12:23;;;;;;;9.30;6.00;;;7.70;1.00;;;;;;5089213;28;20492;-74
2022/03/17 12:14:54;;;;;;;11.53;6.60;;;7.70;1.00;;;;;;5093791;28;20459;-65
2022/03/17 12:17:22;;;;;;;11.57;7.10;;;7.70;1.00;;;;;;5092501;28;20903;-65
2022/03/17 12:20:04;;;;;;;11.67;5.90;;;7.70;1.00;;;;;;5092489;28;20422;-76
2022/03/17 12:22:32;;;;;;;14.87;6.33;;;7.70;1.00;;;;;;5093943;28;20435;-65
2022/03/17 12:25:11;;;;;;;8.07;5.43;;;7.80;1.00;;;;;;5093023;28;20451;-73
2022/03/17 12:27:37;;;;;;;13.73;5.60;;;7.80;1.00;;;;;;5094173;28;20434;-65
2022/03/17 12:30:16;;;;;;;13.57;4.73;;;7.70;1.00;;;;;;5090870;28;20515;-65
2022/03/17 12:32:48;;;;;;;4.80;4.30;;;7.70;1.00;;;;;;5093437;28;20435;-68
2022/03/17 12:35:15;;;;;;;8.27;3.97;;;7.70;1.00;;;;;;5092506;28;20434;-66
2022/03/17 12:37:43;;;;;;;12.60;4.30;;;7.70;1.00;;;;;;5092908;28;20422;-64
2022/03/17 12:40:15;;;;;;;10.80;4.33;;;7.70;1.00;;;;;;5092490;28;20404;-75
2022/03/17 12:42:42;;;;;;;9.80;4.00;;;7.60;1.00;;;;;;5093999;28;20411;-70
2022/03/17 12:45:11;;;;;;;7.10;3.93;;;7.70;1.00;;;;;;5092124;28;20391;-75
2022/03/17 12:47:39;;;;;;;5.90;3.90;;;7.70;1.00;;;;;;5083099;28;20499;-74
2022/03/17 12:50:07;;;;;;;12.13;3.87;;;7.70;1.00;;;;;;5092070;28;20435;-75
2022/03/17 12:52:34;;;;;;;8.80;3.97;;;7.60;1.00;;;;;;5080627;28;20448;-66
2022/03/17 12:55:05;;;;;;;3.97;2.87;;;7.70;1.00;;;;;;5092899;28;20453;-70
2022/03/17 12:57:32;;;;;;;5.03;3.87;;;7.80;1.00;;;;;;5093026;28;20765;-69
2022/03/17 12:59:59;;;;;;;4.53;3.70;;;7.80;1.00;;;;;;5093023;28;20415;-65